createdAt,value
2023-01-02T00:01:33.207Z,100278.78
2023-01-02T00:06:37.020Z,100270.84
2023-01-02T00:11:41.143Z,100264.75
2023-01-02T00:16:43.838Z,100273.34
2023-01-02T00:21:46.592Z,100275.00
2023-01-02T00:26:50.717Z,100263.22
2023-01-02T00:31:53.509Z,100254.94
2023-01-02T00:36:56.196Z,100255.75
2023-01-02T00:42:00.292Z,100247.84
2023-01-02T00:47:03.061Z,100250.47
2023-01-02T00:52:06.085Z,100251.31
2023-01-02T00:57:10.207Z,100254.41
2023-01-02T01:02:13.014Z,100247.78
2023-01-02T01:07:16.327Z,100262.81
2023-01-02T01:12:20.549Z,100249.78
2023-01-02T01:17:23.281Z,100250.25
2023-01-02T01:22:26.295Z,100253.53
2023-01-02T01:27:30.406Z,100238.47
2023-01-02T01:32:33.493Z,100235.31
2023-01-02T01:37:36.216Z,100237.63
2023-01-02T01:42:41.892Z,100230.69
2023-01-02T01:47:46.688Z,100235.78
2023-01-02T01:52:52.578Z,100235.78
2023-01-02T01:57:58.568Z,100214.28
2023-01-02T02:03:06.731Z,100212.09
2023-01-02T02:08:16.806Z,100207.63
2023-01-02T02:13:20.922Z,100196.50
2023-01-02T02:18:42.412Z,100199.25
2023-01-02T02:24:07.829Z,100196.41
2023-01-02T02:29:45.134Z,100193.59
2023-01-02T02:34:55.005Z,100177.66
2023-01-02T02:40:05.319Z,100163.78
2023-01-02T02:45:13.846Z,100153.09
2023-01-02T02:50:23.459Z,100158.38
2023-01-02T02:55:28.347Z,100161.84
2023-01-02T03:00:31.160Z,100168.78
2023-01-02T03:05:39.985Z,100161.47
2023-01-02T03:10:48.107Z,100165.59
2023-01-02T03:15:54.062Z,100172.50
2023-01-02T03:21:02.117Z,100159.75
2023-01-02T03:26:06.303Z,100155.75
2023-01-02T03:31:11.051Z,100159.22
2023-01-02T03:36:18.937Z,100146.25
2023-01-02T03:41:24.034Z,100142.97
2023-01-02T03:46:32.164Z,100136.06
2023-01-02T03:51:36.785Z,100123.44
2023-01-02T03:56:49.225Z,100136.16
2023-01-02T04:01:55.727Z,100132.31
2023-01-02T04:07:03.849Z,100126.38
2023-01-02T04:12:09.816Z,100129.38
2023-01-02T04:17:13.733Z,100129.28
2023-01-02T04:22:20.266Z,100131.50
2023-01-02T04:27:25.679Z,100130.84
2023-01-02T04:32:33.690Z,100134.69
2023-01-02T04:37:40.239Z,100137.31
2023-01-02T04:42:42.966Z,100149.91
2023-01-02T04:47:46.041Z,100151.25
2023-01-02T04:52:50.111Z,100147.41
2023-01-02T04:57:52.876Z,100138.22
2023-01-02T05:02:55.737Z,100123.53
2023-01-02T05:08:00.135Z,100137.66
2023-01-02T05:13:02.818Z,100126.28
2023-01-02T05:18:05.653Z,100128.28
2023-01-02T05:23:29.961Z,100139.03
2023-01-02T05:28:38.446Z,100153.06
2023-01-02T05:33:41.601Z,100146.97
2023-01-02T05:38:45.743Z,100141.41
2023-01-02T05:43:48.439Z,100145.84
2023-01-02T05:48:51.249Z,100146.69
2023-01-02T05:53:56.101Z,100152.13
2023-01-02T05:58:59.481Z,100156.97
2023-01-02T06:04:02.483Z,100145.38
2023-01-02T06:09:07.434Z,100151.88
2023-01-02T06:14:11.102Z,100156.84
2023-01-02T06:19:13.993Z,100175.72
2023-01-02T06:24:18.117Z,100161.84
2023-01-02T06:29:20.897Z,100155.75
2023-01-02T06:34:23.587Z,100155.09
2023-01-02T06:39:27.756Z,100161.03
2023-01-02T06:44:30.426Z,100158.41
2023-01-02T06:49:33.190Z,100150.47
2023-01-02T06:54:37.291Z,100135.59
2023-01-02T06:59:40.035Z,100154.28
2023-01-02T07:04:42.782Z,100169.50
2023-01-02T07:09:46.902Z,100177.25
2023-01-02T07:14:49.722Z,100191.91
2023-01-02T07:19:54.568Z,100196.19
2023-01-02T07:25:01.827Z,100190.41
2023-01-02T07:30:05.153Z,100192.50
2023-01-02T07:35:09.443Z,100192.50
2023-01-02T07:40:14.051Z,100207.53
2023-01-02T07:45:17.012Z,100191.50
2023-01-02T07:50:19.801Z,100192.16
2023-01-02T07:55:23.870Z,100197.59
2023-01-02T08:00:26.791Z,100204.09
2023-01-02T08:05:29.576Z,100210.38
2023-01-02T08:10:33.848Z,100214.34
2023-01-02T08:15:36.717Z,100212.56
2023-01-02T08:20:39.443Z,100216.84
2023-01-02T08:25:43.489Z,100208.72
2023-01-02T08:30:46.483Z,100204.88
2023-01-02T08:35:49.540Z,100203.63
2023-01-02T08:40:53.913Z,100211.38
2023-01-02T08:45:56.872Z,100204.44
2023-01-02T08:50:59.655Z,100207.06
2023-01-02T08:56:20.949Z,100206.88
2023-01-02T09:01:25.184Z,100215.47
2023-01-02T09:06:29.197Z,100215.31
2023-01-02T09:11:35.325Z,100224.03
2023-01-02T09:16:38.096Z,100227.34
2023-01-02T09:21:40.873Z,100235.09
2023-01-02T09:26:45.060Z,100223.50
2023-01-02T09:31:48.175Z,100217.72
2023-01-02T09:36:50.985Z,100225.91
2023-01-02T09:41:57.692Z,100221.09
2023-01-02T09:47:02.086Z,100212.78
2023-01-02T09:52:05.407Z,100208.97
2023-01-02T09:57:23.089Z,100206.59
2023-01-02T10:02:38.584Z,100201.59
2023-01-02T10:07:45.660Z,100197.25
2023-01-02T10:12:58.479Z,100187.56
2023-01-02T10:18:06.470Z,100198.91
2023-01-02T10:23:13.212Z,100203.56
2023-01-02T10:28:23.461Z,100188.06
2023-01-02T10:33:32.161Z,100187.78
2023-01-02T10:38:37.307Z,100185.78
2023-01-02T10:43:41.411Z,100190.94
2023-01-02T10:48:50.205Z,100187.94
2023-01-02T10:54:03.297Z,100189.03
2023-01-02T10:59:21.010Z,100186.53
2023-01-02T11:04:25.437Z,100183.13
2023-01-02T11:09:30.742Z,100173.81
2023-01-02T11:14:36.256Z,100179.47
2023-01-02T11:19:41.549Z,100183.47
2023-01-02T11:25:00.358Z,100186.88
2023-01-02T11:30:07.878Z,100180.78
2023-01-02T11:35:35.256Z,100164.59
2023-01-02T11:40:37.990Z,100170.75
2023-01-02T11:45:42.261Z,100179.00
2023-01-02T11:50:45.471Z,100180.19
2023-01-02T11:55:53.751Z,100183.66
2023-01-02T12:01:03.876Z,100192.19
2023-01-02T12:06:15.945Z,100171.53
2023-01-02T12:11:25.028Z,100163.47
2023-01-02T12:16:36.998Z,100184.47
2023-01-02T12:21:45.767Z,100187.31
2023-01-02T12:26:52.071Z,100177.16
2023-01-02T12:32:22.308Z,100170.16
2023-01-02T12:37:32.951Z,100178.09
2023-01-02T12:42:49.009Z,100190.66
2023-01-02T12:48:02.941Z,100186.88
2023-01-02T12:53:16.027Z,100188.72
2023-01-02T12:58:27.414Z,100180.81
2023-01-02T13:03:49.188Z,100183.31
2023-01-02T13:08:57.781Z,100198.50
2023-01-02T13:14:03.015Z,100194.13
2023-01-02T13:19:17.701Z,100200.50
2023-01-02T13:24:23.163Z,100209.63
2023-01-02T13:29:30.285Z,100210.19
2023-01-02T13:34:35.955Z,100214.31
2023-01-02T13:39:47.814Z,100216.19
2023-01-02T13:44:52.240Z,100230.53
2023-01-02T13:50:01.417Z,100230.53
2023-01-02T13:55:31.369Z,100235.94
2023-01-02T14:00:36.777Z,100234.78
2023-01-02T14:06:00.327Z,100239.97
2023-01-02T14:11:09.877Z,100244.84
2023-01-02T14:16:24.471Z,100245.38
2023-01-02T14:21:35.142Z,100251.88
2023-01-02T14:26:39.443Z,100258.09
2023-01-02T14:31:42.549Z,100263.31
2023-01-02T14:36:48.234Z,100269.41
2023-01-02T14:42:42.138Z,100285.09
2023-01-02T14:47:48.733Z,100290.94
2023-01-02T14:52:59.427Z,100296.13
2023-01-02T14:58:02.438Z,100306.69
2023-01-02T15:03:15.666Z,100317.72
2023-01-02T15:08:22.557Z,100327.63
2023-01-02T15:13:28.565Z,100317.97
2023-01-02T15:18:33.820Z,100328.78
2023-01-02T15:23:38.879Z,100324.03
2023-01-02T15:28:41.615Z,100338.78
2023-01-02T15:33:44.437Z,100354.66
2023-01-02T15:38:48.854Z,100356.19
2023-01-02T15:44:16.399Z,100358.69
2023-01-02T15:49:19.385Z,100369.97
2023-01-02T15:54:23.713Z,100370.94
2023-01-02T15:59:29.933Z,100391.63
2023-01-02T16:04:33.733Z,100385.50
2023-01-02T16:09:38.729Z,100395.94
2023-01-02T16:14:43.649Z,100418.41
2023-01-02T16:19:57.992Z,100415.28
2023-01-02T16:25:06.953Z,100419.03
2023-01-02T16:30:18.779Z,100427.97
2023-01-02T16:35:24.080Z,100421.88
2023-01-02T16:41:02.999Z,100427.69
2023-01-02T16:46:09.445Z,100421.94
2023-01-02T16:51:14.847Z,100425.88
2023-01-02T16:56:18.941Z,100423.09
2023-01-02T17:01:23.626Z,100436.81
2023-01-02T17:06:26.466Z,100446.25
2023-01-02T17:11:30.705Z,100440.97
2023-01-02T17:16:33.486Z,100446.44
2023-01-02T17:21:36.223Z,100456.66
2023-01-02T17:26:40.331Z,100460.63
2023-01-02T17:31:43.084Z,100473.84
2023-01-02T17:36:45.856Z,100471.69
2023-01-02T17:41:51.732Z,100487.19
2023-01-02T17:52:17.711Z,100503.22
2023-01-02T17:57:21.947Z,100509.09
2023-01-02T18:02:24.772Z,100516.09
2023-01-02T18:07:27.773Z,100514.06
2023-01-02T18:12:31.935Z,100529.94
2023-01-02T18:17:34.694Z,100525.38
2023-01-02T18:22:41.114Z,100533.94
2023-01-02T18:27:49.022Z,100527.72
2023-01-02T18:32:58.567Z,100530.75
2023-01-02T18:38:07.754Z,100546.28
2023-01-02T18:43:19.344Z,100549.22
2023-01-02T18:48:23.165Z,100555.91
2023-01-02T18:53:29.479Z,100557.34
2023-01-02T18:58:42.550Z,100568.47
2023-01-02T19:03:46.956Z,100582.47
2023-01-02T19:08:49.953Z,100573.22
2023-01-02T19:13:58.769Z,100587.09
2023-01-02T19:19:01.823Z,100609.38
2023-01-02T19:24:17.669Z,100601.53
2023-01-02T19:29:23.959Z,100617.84
2023-01-02T19:34:30.360Z,100648.03
2023-01-02T19:39:37.878Z,100648.59
2023-01-02T19:44:45.244Z,100658.19
2023-01-02T19:49:48.345Z,100667.06
2023-01-02T19:54:52.348Z,100661.69
2023-01-02T19:59:57.245Z,100661.25
2023-01-02T20:05:00.056Z,100650.31
2023-01-02T20:10:02.834Z,100654.44
2023-01-02T20:15:10.372Z,100683.75
2023-01-02T20:20:15.069Z,100697.16
2023-01-02T20:25:21.026Z,100705.03
2023-01-02T20:30:26.087Z,100703.09
2023-01-02T20:35:29.841Z,100711.00
2023-01-02T20:40:32.582Z,100723.16
2023-01-02T20:45:36.647Z,100737.97
2023-01-02T20:50:39.406Z,100730.09
2023-01-02T20:55:42.124Z,100749.47
2023-01-02T21:00:46.361Z,100753.22
2023-01-02T21:05:49.089Z,100762.88
2023-01-02T21:10:52.024Z,100774.66
2023-01-02T21:15:57.976Z,100783.91
2023-01-02T21:21:03.176Z,100798.56
2023-01-02T21:26:07.025Z,100802.28
2023-01-02T21:31:11.673Z,100821.00
2023-01-02T21:36:15.535Z,100829.13
2023-01-02T21:41:36.040Z,100851.22
2023-01-02T21:46:40.235Z,100850.81
2023-01-02T21:51:42.996Z,100856.03
2023-01-02T21:56:45.808Z,100870.00
2023-01-02T22:01:50.210Z,100875.25
2023-01-02T22:12:15.754Z,100878.50
2023-01-02T22:17:19.954Z,100866.22
2023-01-02T22:22:22.737Z,100881.47
2023-01-02T22:27:25.651Z,100882.44
2023-01-02T22:32:31.866Z,100890.03
2023-01-02T22:37:34.720Z,100902.19
2023-01-02T22:43:01.622Z,100910.00
2023-01-02T22:48:09.588Z,100916.06
2023-01-02T22:53:19.922Z,100912.88
2023-01-02T22:58:22.843Z,100929.44
2023-01-02T23:03:28.651Z,100938.53
2023-01-02T23:08:31.399Z,100941.03
2023-01-02T23:13:34.966Z,100943.97
2023-01-02T23:18:57.266Z,100938.97
2023-01-02T23:24:00.559Z,100947.56
2023-01-02T23:29:08.098Z,100953.59
2023-01-02T23:34:15.211Z,100958.25
2023-01-02T23:39:20.410Z,100958.81
2023-01-02T23:44:24.210Z,100960.31
2023-01-02T23:49:28.313Z,100976.06
2023-01-02T23:54:31.249Z,100979.53
2023-01-02T23:59:33.993Z,100991.69
